createdAt,value
2017-11-25T00:00:34.442Z,1004.27
2017-11-25T00:01:34.468Z,1004.25
2017-11-25T00:02:34.454Z,1004.20
2017-11-25T00:03:34.471Z,1004.26
2017-11-25T00:04:34.479Z,1004.23
2017-11-25T00:05:34.492Z,1004.25
2017-11-25T00:06:34.502Z,1004.26
2017-11-25T00:07:34.510Z,1004.28
2017-11-25T00:08:34.509Z,1004.26
2017-11-25T00:09:34.530Z,1004.26
2017-11-25T00:10:34.542Z,1004.27
2017-11-25T00:11:34.543Z,1004.27
2017-11-25T00:12:34.549Z,1004.27
2017-11-25T00:13:34.553Z,1004.28
2017-11-25T00:14:34.561Z,1004.28
2017-11-25T00:15:34.574Z,1004.30
2017-11-25T00:16:34.591Z,1004.25
2017-11-25T00:17:34.599Z,1004.26
2017-11-25T00:18:35.259Z,1004.27
2017-11-25T00:19:34.607Z,1004.24
2017-11-25T00:20:34.619Z,1004.19
2017-11-25T00:21:34.620Z,1004.22
2017-11-25T00:22:34.629Z,1004.24
2017-11-25T00:23:34.642Z,1004.22
2017-11-25T00:24:34.643Z,1004.24
2017-11-25T00:25:34.661Z,1004.22
2017-11-25T00:26:34.664Z,1004.22
2017-11-25T00:27:34.684Z,1004.27
2017-11-25T00:28:34.684Z,1004.26
2017-11-25T00:29:34.692Z,1004.23
2017-11-25T00:30:34.699Z,1004.26
2017-11-25T00:31:34.702Z,1004.25
2017-11-25T00:32:34.711Z,1004.25
2017-11-25T00:33:34.728Z,1004.24
2017-11-25T00:34:34.729Z,1004.24
2017-11-25T00:35:34.741Z,1004.23
2017-11-25T00:36:34.749Z,1004.21
2017-11-25T00:37:35.501Z,1004.22
2017-11-25T00:38:34.774Z,1004.20
2017-11-25T00:39:34.772Z,1004.21
2017-11-25T00:40:34.783Z,1004.21
2017-11-25T00:41:34.787Z,1004.19
2017-11-25T00:42:34.794Z,1004.20
2017-11-25T00:43:34.808Z,1004.17
2017-11-25T00:44:34.817Z,1004.20
2017-11-25T00:45:34.821Z,1004.23
2017-11-25T00:46:34.831Z,1004.25
2017-11-25T00:47:34.834Z,1004.24
2017-11-25T00:48:34.850Z,1004.27
2017-11-25T00:49:34.868Z,1004.28
2017-11-25T00:50:34.866Z,1004.28
2017-11-25T00:51:34.872Z,1004.27
2017-11-25T00:52:34.891Z,1004.21
2017-11-25T00:53:34.887Z,1004.28
2017-11-25T00:54:34.946Z,1004.25
2017-11-25T00:55:34.911Z,1004.26
2017-11-25T00:56:34.910Z,1004.26
2017-11-25T00:57:34.914Z,1004.24
2017-11-25T00:58:34.945Z,1004.27
2017-11-25T00:59:34.940Z,1004.22
2017-11-25T01:00:34.943Z,1004.22
2017-11-25T01:01:34.958Z,1004.21
2017-11-25T01:02:34.967Z,1004.20
2017-11-25T01:03:34.973Z,1004.18
2017-11-25T01:04:34.982Z,1004.13
2017-11-25T01:05:35.501Z,1004.12
2017-11-25T01:06:34.997Z,1004.09
2017-11-25T01:07:35.016Z,1004.02
2017-11-25T01:08:35.030Z,1004.01
2017-11-25T01:09:35.023Z,1004.03
2017-11-25T01:10:35.031Z,1004.02
2017-11-25T01:11:35.036Z,1004.03
2017-11-25T01:12:35.043Z,1004.07
2017-11-25T01:16:35.084Z,1004.08
2017-11-25T01:17:35.090Z,1004.12
2017-11-25T01:18:35.102Z,1004.12
2017-11-25T01:19:35.269Z,1004.14
2017-11-25T01:20:35.208Z,1004.14
2017-11-25T01:21:35.630Z,1004.14
2017-11-25T01:22:35.136Z,1004.13
2017-11-25T01:24:35.161Z,1004.10
2017-11-25T01:25:35.161Z,1004.04
2017-11-25T01:26:35.170Z,1004.08
2017-11-25T01:27:35.177Z,1004.06
2017-11-25T01:28:35.204Z,1004.02
2017-11-25T01:29:35.196Z,1004.03
2017-11-25T01:30:35.203Z,1004.00
2017-11-25T01:31:35.235Z,1004.05
2017-11-25T01:32:35.237Z,1004.06
2017-11-25T01:33:35.231Z,1004.11
2017-11-25T01:34:35.236Z,1004.08
2017-11-25T01:35:35.247Z,1004.10
2017-11-25T01:36:35.261Z,1004.09
2017-11-25T01:37:35.388Z,1004.11
2017-11-25T01:38:35.300Z,1004.10
2017-11-25T01:39:35.484Z,1004.16
2017-11-25T01:40:35.286Z,1004.14
2017-11-25T01:41:35.298Z,1004.16
2017-11-25T01:42:35.481Z,1004.13
2017-11-25T01:43:35.311Z,1004.10
2017-11-25T01:44:35.320Z,1004.04
2017-11-25T01:45:35.330Z,1003.99
2017-11-25T01:46:35.341Z,1003.92
2017-11-25T01:47:35.353Z,1003.90
2017-11-25T01:48:35.353Z,1003.87
2017-11-25T01:49:35.365Z,1003.86
2017-11-25T01:50:35.378Z,1003.89
2017-11-25T01:51:35.384Z,1003.87
2017-11-25T01:52:35.390Z,1003.85
2017-11-25T01:53:35.460Z,1003.80
2017-11-25T01:54:35.401Z,1003.79
2017-11-25T01:55:35.411Z,1003.77
2017-11-25T01:56:35.426Z,1003.78
2017-11-25T01:57:35.429Z,1003.78
2017-11-25T01:58:35.438Z,1003.81
2017-11-25T01:59:35.463Z,1003.73
2017-11-25T02:00:35.461Z,1003.75
2017-11-25T02:01:35.465Z,1003.77
2017-11-25T02:02:35.492Z,1003.73
2017-11-25T02:03:35.482Z,1003.73
2017-11-25T02:04:35.487Z,1003.69
2017-11-25T02:05:35.507Z,1003.69
2017-11-25T02:06:35.510Z,1003.72
2017-11-25T02:07:35.514Z,1003.72
2017-11-25T02:08:35.527Z,1003.75
2017-11-25T02:09:35.531Z,1003.79
2017-11-25T02:10:35.545Z,1003.73
2017-11-25T02:11:35.546Z,1003.71
2017-11-25T02:12:35.557Z,1003.64
2017-11-25T02:13:35.573Z,1003.68
2017-11-25T02:14:35.575Z,1003.63
2017-11-25T02:15:35.586Z,1003.61
2017-11-25T02:16:35.652Z,1003.54
2017-11-25T02:17:35.600Z,1003.50
2017-11-25T02:18:35.607Z,1003.56
2017-11-25T02:19:35.621Z,1003.48
2017-11-25T02:20:35.626Z,1003.52
2017-11-25T02:21:35.632Z,1003.51
2017-11-25T02:22:35.646Z,1003.44
2017-11-25T02:23:35.651Z,1003.47
2017-11-25T02:24:35.662Z,1003.49
2017-11-25T02:25:35.662Z,1003.47
2017-11-25T02:26:35.678Z,1003.47
2017-11-25T02:27:35.681Z,1003.49
2017-11-25T02:28:35.692Z,1003.51
2017-11-25T02:29:35.698Z,1003.45
2017-11-25T02:30:35.721Z,1003.48
2017-11-25T02:31:35.718Z,1003.50
2017-11-25T02:32:35.727Z,1003.47
2017-11-25T02:33:35.738Z,1003.42
2017-11-25T02:34:35.755Z,1003.42
2017-11-25T02:35:35.754Z,1003.39
2017-11-25T02:36:35.758Z,1003.44
2017-11-25T02:37:35.771Z,1003.42
2017-11-25T02:38:35.779Z,1003.42
2017-11-25T02:39:35.805Z,1003.41
2017-11-25T02:40:35.797Z,1003.44
2017-11-25T02:41:35.801Z,1003.48
2017-11-25T02:42:35.831Z,1003.42
2017-11-25T02:43:35.822Z,1003.36
2017-11-25T02:44:35.840Z,1003.34
2017-11-25T02:45:35.838Z,1003.29
2017-11-25T02:46:35.852Z,1003.29
2017-11-25T02:47:35.856Z,1003.24
2017-11-25T02:48:35.864Z,1003.18
2017-11-25T02:49:35.880Z,1003.17
2017-11-25T02:50:35.879Z,1003.17
2017-11-25T02:51:35.886Z,1003.16
2017-11-25T02:52:35.895Z,1003.13
2017-11-25T02:53:35.902Z,1003.11
2017-11-25T02:54:35.922Z,1003.10
2017-11-25T02:55:35.921Z,1003.15
2017-11-25T02:56:35.927Z,1003.08
2017-11-25T02:57:35.947Z,1003.08
2017-11-25T02:58:35.943Z,1003.06
2017-11-25T02:59:35.961Z,1003.09
2017-11-25T03:00:35.965Z,1003.13
2017-11-25T03:01:35.970Z,1003.22
2017-11-25T03:02:35.982Z,1003.29
2017-11-25T03:03:35.992Z,1003.27
2017-11-25T03:04:36.007Z,1003.24
2017-11-25T03:05:36.005Z,1003.23
2017-11-25T03:06:36.013Z,1003.20
2017-11-25T03:07:36.022Z,1003.22
2017-11-25T03:08:36.031Z,1003.25
2017-11-25T03:09:36.039Z,1003.19
2017-11-25T03:10:36.048Z,1003.13
2017-11-25T03:11:36.053Z,1003.12
2017-11-25T03:12:36.059Z,1003.14
2017-11-25T03:13:36.070Z,1003.12
2017-11-25T03:14:36.074Z,1003.17
2017-11-25T03:15:36.102Z,1003.16
2017-11-25T03:16:36.101Z,1003.08
2017-11-25T03:17:36.107Z,1003.12
2017-11-25T03:18:36.117Z,1003.09
2017-11-25T03:19:36.123Z,1003.11
2017-11-25T03:20:36.131Z,1003.15
2017-11-25T03:21:36.131Z,1003.11
2017-11-25T03:22:36.148Z,1003.12
2017-11-25T03:23:36.157Z,1003.09
2017-11-25T03:24:36.169Z,1003.07
2017-11-25T03:25:36.171Z,1003.05
2017-11-25T03:26:36.178Z,1003.03
2017-11-25T03:27:36.184Z,1003.00
2017-11-25T03:28:36.203Z,1002.98
2017-11-25T03:29:36.203Z,1002.92
2017-11-25T03:30:36.232Z,1002.98
2017-11-25T03:31:36.233Z,1002.97
2017-11-25T03:32:36.269Z,1002.93
2017-11-25T03:33:36.236Z,1002.94
2017-11-25T03:34:36.249Z,1002.92
2017-11-25T03:35:36.253Z,1002.93
2017-11-25T03:36:36.262Z,1002.90
2017-11-25T03:37:36.266Z,1002.89
2017-11-25T03:38:36.277Z,1002.88
2017-11-25T03:39:36.295Z,1002.88
2017-11-25T03:40:36.295Z,1002.91
2017-11-25T03:41:36.298Z,1002.92
2017-11-25T03:42:36.320Z,1002.93
2017-11-25T03:43:36.319Z,1002.92
2017-11-25T03:44:36.340Z,1002.89
2017-11-25T03:45:36.337Z,1002.86
2017-11-25T03:46:36.357Z,1002.83
2017-11-25T03:47:36.356Z,1002.85
2017-11-25T03:48:36.361Z,1002.86
2017-11-25T03:49:36.373Z,1002.89
2017-11-25T03:50:36.372Z,1002.85
2017-11-25T03:51:36.385Z,1002.82
2017-11-25T03:52:37.022Z,1002.80
2017-11-25T03:53:36.397Z,1002.79
2017-11-25T03:54:36.416Z,1002.74
2017-11-25T03:55:36.427Z,1002.79
2017-11-25T03:56:36.429Z,1002.77
2017-11-25T03:57:36.436Z,1002.83
2017-11-25T03:58:36.445Z,1002.76
2017-11-25T03:59:36.455Z,1002.80
2017-11-25T04:00:36.461Z,1002.79
2017-11-25T04:01:36.472Z,1002.79
2017-11-25T04:02:36.475Z,1002.71
2017-11-25T04:03:36.501Z,1002.65
2017-11-25T04:04:36.495Z,1002.61
2017-11-25T04:05:36.557Z,1002.62
2017-11-25T04:06:36.520Z,1002.55
2017-11-25T04:07:36.529Z,1002.56
2017-11-25T04:08:36.546Z,1002.58
2017-11-25T04:09:36.542Z,1002.57
2017-11-25T04:10:36.551Z,1002.52
2017-11-25T04:11:36.556Z,1002.55
2017-11-25T04:12:36.628Z,1002.56
2017-11-25T04:13:36.569Z,1002.57
2017-11-25T04:14:36.580Z,1002.57
2017-11-25T04:15:36.587Z,1002.56
2017-11-25T04:16:36.591Z,1002.57
2017-11-25T04:17:36.601Z,1002.50
2017-11-25T04:18:36.608Z,1002.45
2017-11-25T04:19:36.623Z,1002.37
2017-11-25T04:20:36.634Z,1002.36
2017-11-25T04:21:36.640Z,1002.33
2017-11-25T04:22:36.652Z,1002.31
2017-11-25T04:23:36.652Z,1002.33
2017-11-25T04:24:36.661Z,1002.30
2017-11-25T04:25:36.669Z,1002.23
2017-11-25T04:26:36.679Z,1002.27
2017-11-25T04:27:36.682Z,1002.28
2017-11-25T04:28:36.689Z,1002.27
2017-11-25T04:29:36.705Z,1002.30
2017-11-25T04:30:36.713Z,1002.30
2017-11-25T04:31:36.717Z,1002.31
2017-11-25T04:32:36.726Z,1002.29
2017-11-25T04:33:36.732Z,1002.32
2017-11-25T04:34:36.741Z,1002.29
2017-11-25T04:35:36.756Z,1002.35
2017-11-25T04:36:36.760Z,1002.29
2017-11-25T04:37:36.774Z,1002.29
2017-11-25T04:38:36.782Z,1002.29
2017-11-25T04:39:36.783Z,1002.27
2017-11-25T04:40:36.873Z,1002.21
2017-11-25T04:41:36.801Z,1002.18
2017-11-25T04:42:36.812Z,1002.18
2017-11-25T04:43:36.830Z,1002.16
2017-11-25T04:44:36.832Z,1002.09
2017-11-25T04:45:36.834Z,1002.11
2017-11-25T04:46:36.840Z,1002.11
2017-11-25T04:47:36.851Z,1002.15
2017-11-25T04:48:36.859Z,1002.16
2017-11-25T04:49:36.870Z,1002.16
2017-11-25T04:50:36.871Z,1002.15
2017-11-25T04:51:36.879Z,1002.15
2017-11-25T04:52:36.899Z,1002.13
2017-11-25T04:53:36.909Z,1002.13
2017-11-25T04:54:36.918Z,1002.18
2017-11-25T04:55:36.926Z,1002.11
2017-11-25T04:56:36.929Z,1002.06
2017-11-25T04:57:36.933Z,1002.10
2017-11-25T04:58:36.947Z,1002.09
2017-11-25T04:59:36.950Z,1002.08
2017-11-25T05:00:36.961Z,1002.08
2017-11-25T05:01:36.966Z,1002.10
2017-11-25T05:02:36.982Z,1002.08
2017-11-25T05:03:36.986Z,1002.08
2017-11-25T05:04:36.989Z,1002.11
2017-11-25T05:05:37.003Z,1002.15
2017-11-25T05:06:37.006Z,1002.16
2017-11-25T05:07:37.022Z,1002.15
2017-11-25T05:08:37.024Z,1002.14
2017-11-25T05:09:37.033Z,1002.11
2017-11-25T05:10:37.039Z,1002.12
2017-11-25T05:11:37.061Z,1002.12
2017-11-25T05:12:37.055Z,1002.11
2017-11-25T05:13:37.067Z,1002.11
2017-11-25T05:14:37.073Z,1002.08
2017-11-25T05:15:37.083Z,1001.98
2017-11-25T05:16:37.093Z,1001.98
2017-11-25T05:17:37.126Z,1001.87
2017-11-25T05:18:37.144Z,1001.87
2017-11-25T05:19:37.115Z,1001.81
2017-11-25T05:20:37.126Z,1001.74
2017-11-25T05:21:37.179Z,1001.72
2017-11-25T05:22:37.139Z,1001.73
2017-11-25T05:23:37.157Z,1001.72
2017-11-25T05:24:37.156Z,1001.75
2017-11-25T05:25:37.165Z,1001.82
2017-11-25T05:26:37.176Z,1001.85
2017-11-25T05:27:37.181Z,1001.85
2017-11-25T05:28:37.188Z,1001.93
2017-11-25T05:29:37.194Z,1001.90
2017-11-25T05:30:37.234Z,1001.95
2017-11-25T05:31:37.212Z,1001.96
2017-11-25T05:32:37.221Z,1001.99
2017-11-25T05:33:37.238Z,1001.96
2017-11-25T05:34:37.237Z,1001.96
2017-11-25T05:35:37.247Z,1001.94
2017-11-25T05:36:37.256Z,1001.93
2017-11-25T05:37:37.263Z,1001.96
2017-11-25T05:38:37.273Z,1001.94
2017-11-25T05:39:37.276Z,1001.97
2017-11-25T05:40:37.285Z,1001.91
2017-11-25T05:41:37.294Z,1001.94
2017-11-25T05:42:37.298Z,1001.94
2017-11-25T05:43:37.312Z,1001.92
2017-11-25T05:44:37.328Z,1001.97
2017-11-25T05:45:37.327Z,1001.96
2017-11-25T05:46:37.334Z,1001.96
2017-11-25T05:47:37.340Z,1001.96
2017-11-25T05:48:37.352Z,1001.93
2017-11-25T05:49:37.383Z,1001.89
2017-11-25T05:50:37.366Z,1001.89
2017-11-25T05:51:37.378Z,1001.93
2017-11-25T05:52:37.383Z,1001.98
2017-11-25T05:53:37.396Z,1002.03
2017-11-25T05:54:37.401Z,1002.05
2017-11-25T05:55:37.412Z,1002.11
2017-11-25T05:56:37.416Z,1002.08
2017-11-25T05:57:37.454Z,1002.11
2017-11-25T05:58:37.430Z,1002.13
2017-11-25T05:59:37.444Z,1002.19
2017-11-25T06:00:37.450Z,1002.21
2017-11-25T06:01:37.453Z,1002.27
2017-11-25T06:02:37.459Z,1002.24
2017-11-25T06:03:37.472Z,1002.25
2017-11-25T06:04:37.479Z,1002.26
2017-11-25T06:05:37.486Z,1002.24
2017-11-25T06:06:37.503Z,1002.20
2017-11-25T06:07:37.502Z,1002.21
2017-11-25T06:08:37.510Z,1002.23
2017-11-25T06:09:37.617Z,1002.23
2017-11-25T06:10:37.582Z,1002.23
2017-11-25T06:11:37.539Z,1002.27
2017-11-25T06:12:37.550Z,1002.26
2017-11-25T06:13:37.550Z,1002.25
2017-11-25T06:14:37.561Z,1002.23
2017-11-25T06:15:37.572Z,1002.25
2017-11-25T06:16:37.576Z,1002.26
2017-11-25T06:17:37.586Z,1002.23
2017-11-25T06:18:37.594Z,1002.19
2017-11-25T06:19:37.597Z,1002.21
2017-11-25T06:20:37.606Z,1002.22
2017-11-25T06:21:37.615Z,1002.22
2017-11-25T06:22:37.621Z,1002.22
2017-11-25T06:23:37.629Z,1002.26
2017-11-25T06:24:37.642Z,1002.21
2017-11-25T06:25:37.652Z,1002.24
2017-11-25T06:26:37.655Z,1002.22
2017-11-25T06:27:37.678Z,1002.21
2017-11-25T06:28:37.669Z,1002.19
2017-11-25T06:29:37.680Z,1002.16
2017-11-25T06:30:37.683Z,1002.14
2017-11-25T06:31:37.697Z,1002.14
2017-11-25T06:32:37.740Z,1002.13
2017-11-25T06:33:37.706Z,1002.16
2017-11-25T06:34:37.729Z,1002.13
2017-11-25T06:35:37.729Z,1002.18
2017-11-25T06:36:37.735Z,1002.18
2017-11-25T06:37:37.740Z,1002.18
2017-11-25T06:38:37.754Z,1002.17
2017-11-25T06:39:37.760Z,1002.11
2017-11-25T06:40:37.770Z,1002.08
2017-11-25T06:41:37.774Z,1002.04
2017-11-25T06:42:37.787Z,1002.05
2017-11-25T06:43:37.795Z,1002.02
2017-11-25T06:44:37.797Z,1002.00
2017-11-25T06:45:37.808Z,1002.01
2017-11-25T06:46:37.808Z,1001.98
2017-11-25T06:47:37.819Z,1002.00
2017-11-25T06:48:37.827Z,1002.02
2017-11-25T06:49:37.833Z,1002.00
2017-11-25T06:50:37.845Z,1002.00
2017-11-25T06:51:37.851Z,1002.03
2017-11-25T06:52:37.862Z,1002.03
2017-11-25T06:53:37.867Z,1002.03
2017-11-25T06:54:37.872Z,1002.03
2017-11-25T06:55:37.884Z,1002.04
2017-11-25T06:56:37.896Z,1002.01
2017-11-25T06:57:37.905Z,1002.10
2017-11-25T06:58:37.909Z,1002.13
2017-11-25T06:59:37.914Z,1002.08
2017-11-25T07:00:37.923Z,1002.02
2017-11-25T07:01:37.932Z,1002.06
2017-11-25T07:02:37.944Z,1002.07
2017-11-25T07:03:37.948Z,1002.06
2017-11-25T07:04:37.965Z,1002.06
2017-11-25T07:05:37.970Z,1002.11
2017-11-25T07:06:37.968Z,1002.13
2017-11-25T07:07:37.983Z,1002.18
2017-11-25T07:08:37.987Z,1002.20
2017-11-25T07:09:37.992Z,1002.21
2017-11-25T07:10:38.006Z,1002.20
2017-11-25T07:11:38.009Z,1002.17
2017-11-25T07:12:38.025Z,1002.22
2017-11-25T07:13:38.023Z,1002.23
2017-11-25T07:14:38.031Z,1002.26
2017-11-25T07:15:38.044Z,1002.26
2017-11-25T07:16:38.053Z,1002.27
2017-11-25T07:17:38.056Z,1002.23
2017-11-25T07:18:38.060Z,1002.27
2017-11-25T07:19:38.136Z,1002.29
2017-11-25T07:20:38.151Z,1002.29
2017-11-25T07:21:38.097Z,1002.32
2017-11-25T07:22:38.096Z,1002.36
2017-11-25T07:23:38.106Z,1002.40
2017-11-25T07:24:38.110Z,1002.41
2017-11-25T07:25:38.116Z,1002.47
2017-11-25T07:26:39.052Z,1002.46
2017-11-25T07:27:38.145Z,1002.50
2017-11-25T07:28:38.142Z,1002.52
2017-11-25T07:29:38.154Z,1002.52
2017-11-25T07:30:38.161Z,1002.55
2017-11-25T07:31:38.165Z,1002.57
2017-11-25T07:32:38.171Z,1002.63
2017-11-25T07:33:38.182Z,1002.64
2017-11-25T07:34:38.193Z,1002.65
2017-11-25T07:35:38.195Z,1002.66
2017-11-25T07:36:38.204Z,1002.65
2017-11-25T07:37:38.211Z,1002.65
2017-11-25T07:38:38.226Z,1002.65
2017-11-25T07:39:38.234Z,1002.69
2017-11-25T07:40:38.251Z,1002.69
2017-11-25T07:41:38.253Z,1002.70
2017-11-25T07:42:38.259Z,1002.74
2017-11-25T07:43:38.260Z,1002.76
2017-11-25T07:44:38.273Z,1002.76
2017-11-25T07:45:38.277Z,1002.78
2017-11-25T07:46:38.290Z,1002.77
2017-11-25T07:47:38.302Z,1002.80
2017-11-25T07:48:38.320Z,1002.82
2017-11-25T07:49:38.312Z,1002.84
2017-11-25T07:50:38.317Z,1002.84
2017-11-25T07:51:38.324Z,1002.87
2017-11-25T07:52:38.332Z,1002.87
2017-11-25T07:53:38.338Z,1002.87
2017-11-25T07:54:38.356Z,1002.93
2017-11-25T07:55:38.359Z,1002.91
2017-11-25T07:56:38.364Z,1002.94
2017-11-25T07:57:38.370Z,1002.96
2017-11-25T07:58:38.434Z,1002.99
2017-11-25T07:59:38.384Z,1002.97
2017-11-25T08:00:38.396Z,1002.97
2017-11-25T08:01:38.407Z,1002.98
2017-11-25T08:02:38.407Z,1003.00
2017-11-25T08:03:38.417Z,1003.03
2017-11-25T08:04:39.053Z,1003.05
2017-11-25T08:05:38.442Z,1003.07
2017-11-25T08:06:38.441Z,1003.08
2017-11-25T08:07:38.450Z,1003.05
2017-11-25T08:08:38.460Z,1003.06
2017-11-25T08:09:38.461Z,1003.07
2017-11-25T08:10:38.468Z,1003.08
2017-11-25T08:11:38.492Z,1003.10
2017-11-25T08:12:38.504Z,1003.11
2017-11-25T08:13:38.493Z,1003.12
2017-11-25T08:14:38.505Z,1003.13
2017-11-25T08:15:38.511Z,1003.13
2017-11-25T08:16:38.524Z,1003.13
2017-11-25T08:17:38.523Z,1003.10
2017-11-25T08:18:38.535Z,1003.12
2017-11-25T08:19:38.545Z,1003.17
2017-11-25T08:20:38.560Z,1003.17
2017-11-25T08:21:38.553Z,1003.19
2017-11-25T08:22:38.566Z,1003.19
2017-11-25T08:23:38.573Z,1003.20
2017-11-25T08:24:38.594Z,1003.18
2017-11-25T08:25:38.585Z,1003.23
2017-11-25T08:26:38.594Z,1003.26
2017-11-25T08:27:38.598Z,1003.25
2017-11-25T08:28:38.611Z,1003.26
2017-11-25T08:29:38.621Z,1003.30
2017-11-25T08:30:38.637Z,1003.30
2017-11-25T08:31:38.636Z,1003.33
2017-11-25T08:32:38.638Z,1003.31
2017-11-25T08:33:38.649Z,1003.33
2017-11-25T08:34:38.661Z,1003.35
2017-11-25T08:35:38.663Z,1003.37
2017-11-25T08:36:38.671Z,1003.38
2017-11-25T08:37:38.681Z,1003.37
2017-11-25T08:38:38.692Z,1003.39
2017-11-25T08:39:38.696Z,1003.43
2017-11-25T08:40:38.706Z,1003.46
2017-11-25T08:41:38.720Z,1003.44
2017-11-25T08:42:38.719Z,1003.45
2017-11-25T08:43:38.751Z,1003.48
2017-11-25T08:44:38.734Z,1003.47
2017-11-25T08:45:38.741Z,1003.53
2017-11-25T08:46:38.758Z,1003.51
2017-11-25T08:47:38.766Z,1003.50
2017-11-25T08:48:38.765Z,1003.48
2017-11-25T08:49:38.843Z,1003.50
2017-11-25T08:50:38.786Z,1003.53
2017-11-25T08:51:38.803Z,1003.57
2017-11-25T08:52:38.803Z,1003.55
2017-11-25T08:53:38.803Z,1003.59
2017-11-25T08:54:38.822Z,1003.55
2017-11-25T08:55:38.829Z,1003.60
2017-11-25T08:56:38.836Z,1003.61
2017-11-25T08:57:38.838Z,1003.62
2017-11-25T08:58:38.857Z,1003.62
2017-11-25T08:59:38.862Z,1003.62
2017-11-25T09:00:38.953Z,1003.61
2017-11-25T09:01:38.925Z,1003.67
2017-11-25T09:02:38.884Z,1003.66
2017-11-25T09:03:38.894Z,1003.65
2017-11-25T09:04:38.900Z,1003.68
2017-11-25T09:05:38.910Z,1003.70
2017-11-25T09:06:38.916Z,1003.69
2017-11-25T09:07:38.926Z,1003.69
2017-11-25T09:08:38.943Z,1003.71
2017-11-25T09:09:38.934Z,1003.71
2017-11-25T09:10:39.186Z,1003.72
2017-11-25T09:11:39.248Z,1003.74
2017-11-25T09:12:38.965Z,1003.75
2017-11-25T09:13:38.970Z,1003.78
2017-11-25T09:14:39.645Z,1003.79
2017-11-25T09:15:38.983Z,1003.81
2017-11-25T09:16:38.991Z,1003.85
2017-11-25T09:17:39.004Z,1003.80
2017-11-25T09:18:39.016Z,1003.83
2017-11-25T09:19:39.021Z,1003.85
2017-11-25T09:20:39.027Z,1003.87
2017-11-25T09:21:39.043Z,1003.83
2017-11-25T09:22:39.045Z,1003.84
2017-11-25T09:23:39.056Z,1003.86
2017-11-25T09:24:40.056Z,1003.87
2017-11-25T09:25:39.073Z,1003.84
2017-11-25T09:26:39.560Z,1003.88
2017-11-25T09:27:39.095Z,1003.86
2017-11-25T09:28:39.098Z,1003.91
2017-11-25T09:29:39.104Z,1003.94
2017-11-25T09:30:39.114Z,1003.91
2017-11-25T09:31:39.127Z,1003.93
2017-11-25T09:32:39.137Z,1003.89
2017-11-25T09:33:39.143Z,1003.93
2017-11-25T09:34:39.149Z,1003.90
2017-11-25T09:35:39.159Z,1003.89
2017-11-25T09:36:39.160Z,1003.89
2017-11-25T09:37:39.192Z,1003.94
2017-11-25T09:38:39.179Z,1003.86
2017-11-25T09:39:39.181Z,1003.88
2017-11-25T09:40:39.194Z,1003.87
2017-11-25T09:41:39.205Z,1003.86
2017-11-25T09:42:39.207Z,1003.89
2017-11-25T09:43:39.508Z,1003.88
2017-11-25T09:44:39.229Z,1003.88
2017-11-25T09:45:39.237Z,1003.87
2017-11-25T09:46:39.249Z,1003.93
2017-11-25T09:47:39.256Z,1003.95
2017-11-25T09:48:39.266Z,1004.00
2017-11-25T09:49:39.269Z,1003.96
2017-11-25T09:50:39.296Z,1003.97
2017-11-25T09:51:39.288Z,1003.95
2017-11-25T09:52:39.300Z,1003.92
2017-11-25T09:53:39.317Z,1003.93
2017-11-25T09:54:39.315Z,1003.91
2017-11-25T09:55:39.330Z,1003.88
2017-11-25T09:56:39.338Z,1003.90
2017-11-25T09:57:39.338Z,1003.90
2017-11-25T09:58:39.342Z,1003.87
2017-11-25T09:59:39.356Z,1003.91
2017-11-25T10:00:39.473Z,1003.87
2017-11-25T10:01:39.376Z,1003.85
2017-11-25T10:02:39.387Z,1003.83
2017-11-25T10:03:39.383Z,1003.86
2017-11-25T10:04:39.656Z,1003.92
2017-11-25T10:05:39.435Z,1003.93
2017-11-25T10:06:39.417Z,1003.91
2017-11-25T10:07:39.430Z,1003.87
2017-11-25T10:08:39.430Z,1003.91
2017-11-25T10:09:39.436Z,1003.95
2017-11-25T10:10:39.544Z,1003.93
2017-11-25T10:11:39.470Z,1003.96
2017-11-25T10:12:39.514Z,1003.95
2017-11-25T10:13:39.492Z,1003.91
2017-11-25T10:14:39.483Z,1003.93
2017-11-25T10:15:39.557Z,1003.97
2017-11-25T10:16:39.507Z,1004.00
2017-11-25T10:17:39.508Z,1004.00
2017-11-25T10:18:39.715Z,1003.98
2017-11-25T10:19:39.529Z,1004.02
2017-11-25T10:20:39.535Z,1003.99
2017-11-25T10:21:39.541Z,1004.00
2017-11-25T10:22:39.548Z,1004.01
2017-11-25T10:23:39.560Z,1004.02
2017-11-25T10:24:39.582Z,1004.06
2017-11-25T10:25:40.074Z,1004.02
2017-11-25T10:26:39.601Z,1004.08
2017-11-25T10:27:39.598Z,1004.07
2017-11-25T10:28:39.610Z,1004.01
2017-11-25T10:29:39.610Z,1004.06
2017-11-25T10:30:39.613Z,1004.05
2017-11-25T10:31:39.634Z,1004.05
2017-11-25T10:32:39.766Z,1004.04
2017-11-25T10:33:39.702Z,1004.02
2017-11-25T10:34:39.654Z,1004.02
2017-11-25T10:35:39.666Z,1003.97
2017-11-25T10:36:39.670Z,1004.02
2017-11-25T10:37:39.694Z,1003.97
2017-11-25T10:38:39.697Z,1003.93
2017-11-25T10:39:39.692Z,1003.97
2017-11-25T10:40:39.708Z,1003.97
2017-11-25T10:41:39.716Z,1004.01
2017-11-25T10:42:39.736Z,1004.00
2017-11-25T10:43:39.731Z,1004.01
2017-11-25T10:44:39.750Z,1004.02
2017-11-25T10:45:39.750Z,1004.06
2017-11-25T10:46:39.761Z,1004.07
2017-11-25T10:47:39.807Z,1004.02
2017-11-25T10:48:39.849Z,1004.03
2017-11-25T10:49:39.796Z,1004.03
2017-11-25T10:50:39.804Z,1004.06
2017-11-25T10:51:39.805Z,1004.02
2017-11-25T10:52:39.809Z,1004.04
2017-11-25T10:53:39.853Z,1004.02
2017-11-25T10:54:39.831Z,1004.03
2017-11-25T10:55:39.844Z,1004.02
2017-11-25T10:56:39.849Z,1003.99
2017-11-25T10:57:39.861Z,1004.02
2017-11-25T10:58:39.864Z,1004.01
2017-11-25T10:59:39.891Z,1004.03
2017-11-25T11:00:39.889Z,1004.06
2017-11-25T11:01:39.893Z,1004.06
2017-11-25T11:02:39.903Z,1004.04
2017-11-25T11:03:39.913Z,1004.05
2017-11-25T11:04:39.930Z,1004.09
2017-11-25T11:05:39.936Z,1004.08
2017-11-25T11:06:39.953Z,1004.05
2017-11-25T11:07:39.951Z,1004.10
2017-11-25T11:08:39.964Z,1004.09
2017-11-25T11:09:39.968Z,1004.16
2017-11-25T11:10:39.982Z,1004.09
2017-11-25T11:11:39.993Z,1004.16
2017-11-25T11:12:40.003Z,1004.19
2017-11-25T11:13:40.010Z,1004.18
2017-11-25T11:14:40.026Z,1004.17
2017-11-25T11:15:40.034Z,1004.20
2017-11-25T11:16:40.047Z,1004.18
2017-11-25T11:17:40.056Z,1004.16
2017-11-25T11:18:40.078Z,1004.15
2017-11-25T11:19:40.079Z,1004.18
2017-11-25T11:20:40.100Z,1004.15
2017-11-25T11:21:40.115Z,1004.18
2017-11-25T11:22:40.122Z,1004.23
2017-11-25T11:23:40.128Z,1004.19
2017-11-25T11:24:40.149Z,1004.19
2017-11-25T11:25:40.149Z,1004.22
2017-11-25T11:26:40.164Z,1004.26
2017-11-25T11:27:40.196Z,1004.26
2017-11-25T11:28:40.181Z,1004.32
2017-11-25T11:29:40.190Z,1004.26
2017-11-25T11:30:40.216Z,1004.25
2017-11-25T11:31:40.219Z,1004.21
2017-11-25T11:32:40.232Z,1004.23
2017-11-25T11:33:40.239Z,1004.19
2017-11-25T11:34:40.274Z,1004.22
2017-11-25T11:35:40.270Z,1004.24
2017-11-25T11:36:40.282Z,1004.24
2017-11-25T11:37:40.293Z,1004.23
2017-11-25T11:38:40.316Z,1004.28
2017-11-25T11:39:40.314Z,1004.29
2017-11-25T11:40:40.329Z,1004.29
2017-11-25T11:41:40.338Z,1004.28
2017-11-25T11:42:40.361Z,1004.33
2017-11-25T11:43:40.365Z,1004.32
2017-11-25T11:44:40.381Z,1004.35
2017-11-25T11:45:40.390Z,1004.39
2017-11-25T11:46:40.450Z,1004.37
2017-11-25T11:47:40.424Z,1004.40
2017-11-25T11:48:40.431Z,1004.39
2017-11-25T11:49:40.438Z,1004.38
2017-11-25T11:50:40.449Z,1004.41
2017-11-25T11:51:40.464Z,1004.39
2017-11-25T11:52:40.480Z,1004.39
2017-11-25T11:53:40.492Z,1004.38
2017-11-25T11:54:40.512Z,1004.36
2017-11-25T11:55:40.520Z,1004.33
2017-11-25T11:56:40.534Z,1004.32
2017-11-25T11:57:40.548Z,1004.37
2017-11-25T11:58:40.569Z,1004.36
2017-11-25T11:59:40.576Z,1004.34
2017-11-25T12:00:40.590Z,1004.37
2017-11-25T12:01:40.640Z,1004.40
2017-11-25T12:02:40.618Z,1004.39
2017-11-25T12:03:40.639Z,1004.34
2017-11-25T12:04:40.649Z,1004.37
2017-11-25T12:05:40.670Z,1004.29
2017-11-25T12:06:40.676Z,1004.31
2017-11-25T12:07:40.698Z,1004.33
2017-11-25T12:08:40.712Z,1004.35
2017-11-25T12:09:40.767Z,1004.34